< Typhoon 196911 1969 Season Typhoon 196913 >
Typhoon 196912 (FLOSSIE)
General InformationTrack Information on Google Maps || Disaster Info.ResourceGoogle EarthGE AnimationAtom FeedGeoJSON
Detalied Best Track (Time Zone = UTC)
Year Month Day Hour Lat. Long. Pressure (hPa) Wind (kt) Class Image Chart
1969 9 27 00 12.8 138.6 1006 0 2 -- Chart
1969 9 27 06 12.7 137.5 1006 0 2 -- Chart
1969 9 27 12 12.6 136.6 1006 0 2 -- Chart
1969 9 27 18 12.6 135.7 1006 0 2 -- Chart
1969 9 28 00 12.7 134.8 1006 0 2 -- Chart
1969 9 28 06 13.0 134.0 1004 0 2 -- Chart
1969 9 28 12 13.3 133.0 1004 0 2 -- Chart
1969 9 28 18 13.6 132.1 1002 0 2 -- Chart
1969 9 29 00 13.8 131.3 1000 0 2 -- Chart
1969 9 29 06 14.0 130.5 1000 0 2 -- Chart
1969 9 29 12 14.4 129.8 997 0 2 -- Chart
1969 9 29 18 14.9 129.2 992 0 2 -- Chart
1969 9 30 00 15.6 128.7 985 0 9 -- Chart
1969 9 30 06 17.2 128.0 975 0 9 -- Chart
1969 9 30 12 18.3 126.6 975 0 9 -- Chart
1969 9 30 18 19.0 125.5 975 0 9 -- Chart
1969 10 1 00 19.4 123.5 975 0 9 -- Chart
1969 10 1 06 20.0 122.7 970 0 9 -- Chart
1969 10 1 12 20.5 122.0 965 0 9 -- Chart
1969 10 1 18 21.0 122.0 960 0 9 -- Chart
1969 10 2 00 21.6 121.9 960 0 9 -- Chart
1969 10 2 06 22.4 121.6 965 0 9 -- Chart
1969 10 2 12 22.9 121.8 970 0 9 -- Chart
1969 10 2 18 23.2 122.1 980 0 9 -- Chart
1969 10 3 00 23.7 122.3 980 0 9 -- Chart
1969 10 3 06 24.3 122.5 980 0 9 -- Chart
1969 10 3 12 24.1 122.7 980 0 9 -- Chart
1969 10 3 18 24.1 123.0 985 0 9 -- Chart
1969 10 4 00 24.3 123.0 985 0 9 -- Chart
1969 10 4 06 24.0 123.0 990 0 9 -- Chart
1969 10 4 12 24.2 123.3 990 0 9 -- Chart
1969 10 4 18 24.3 123.6 990 0 9 -- Chart
1969 10 5 00 24.6 124.2 990 0 9 -- Chart
1969 10 5 06 24.9 124.7 995 0 9 -- Chart
1969 10 5 12 24.8 125.1 1000 0 2 -- Chart
1969 10 5 18 24.9 125.8 1002 0 2 -- Chart
1969 10 6 00 25.1 126.2 1002 0 2 -- Chart
1969 10 6 06 25.3 126.5 1000 0 2 -- Chart
1969 10 6 12 25.5 127.0 1000 0 2 -- Chart
1969 10 6 18 25.7 127.4 1000 0 2 -- Chart
1969 10 7 00 26.0 127.9 996 0 2 -- Chart
1969 10 7 06 26.2 128.8 998 0 2 -- Chart
1969 10 7 12 26.3 129.5 1002 0 2 -- Chart
1969 10 7 18 26.5 130.2 1000 0 2 -- Chart
1969 10 8 00 26.6 131.0 1002 0 2 -- Chart
1969 10 8 06 26.9 131.9 1000 0 2 -- Chart
1969 10 8 12 27.9 133.9 985 0 9 -- Chart
1969 10 8 18 29.4 135.8 975 0 9 -- Chart
1969 10 9 00 31.4 138.4 970 0 9 -- Chart
1969 10 9 06 34.4 142.5 980 0 9 -- Chart
1969 10 9 12 38.0 147.3 990 0 9 -- Chart
1969 10 9 18 42.0 153.0 998 0 6 -- Chart
Japan Meteorological Agency Best Track Data | Correction Date : 1989-06-01
< Typhoon 196911 1969 Season Typhoon 196913 >

Help